createdAt,value
2022-11-24T00:01:22.401Z,100289.00
2022-11-24T00:04:04.586Z,100284.00
2022-11-24T00:06:34.774Z,100283.00
2022-11-24T00:09:03.406Z,100290.00
2022-11-24T00:11:34.016Z,100294.00
2022-11-24T00:14:01.449Z,100291.00
2022-11-24T00:16:35.408Z,100278.00
2022-11-24T00:19:04.390Z,100287.00
2022-11-24T00:21:32.649Z,100287.00
2022-11-24T00:23:59.969Z,100283.00
2022-11-24T00:26:30.693Z,100278.00
2022-11-24T00:29:01.401Z,100286.00
2022-11-24T00:31:36.622Z,100290.00
2022-11-24T00:34:07.101Z,100292.00
2022-11-24T00:36:35.735Z,100293.00
2022-11-24T00:39:10.981Z,100286.00
2022-11-24T00:41:37.854Z,100296.00
2022-11-24T00:44:05.081Z,100290.00
2022-11-24T00:46:32.145Z,100287.00
2022-11-24T00:49:00.430Z,100287.00
2022-11-24T00:51:32.694Z,100283.00
2022-11-24T00:54:01.140Z,100288.00
2022-11-24T00:56:29.671Z,100293.00
2022-11-24T00:58:56.805Z,100292.00
2022-11-24T01:01:27.699Z,100287.00
2022-11-24T01:03:55.737Z,100283.00
2022-11-24T01:06:26.284Z,100282.00
2022-11-24T01:08:53.658Z,100280.00
2022-11-24T01:11:24.954Z,100283.00
2022-11-24T01:13:56.058Z,100289.00
2022-11-24T01:16:32.141Z,100287.00
2022-11-24T01:18:59.310Z,100293.00
2022-11-24T01:21:26.151Z,100303.00
2022-11-24T01:23:52.940Z,100302.00
2022-11-24T01:26:22.419Z,100305.00
2022-11-24T01:28:57.977Z,100307.00
2022-11-24T01:31:26.504Z,100316.00
2022-11-24T01:33:53.810Z,100306.00
2022-11-24T01:36:21.418Z,100310.00
2022-11-24T01:38:48.435Z,100306.00
2022-11-24T01:41:19.232Z,100306.00
2022-11-24T01:43:47.634Z,100298.00
2022-11-24T01:46:26.875Z,100287.00
2022-11-24T01:49:08.664Z,100281.00
2022-11-24T01:51:48.674Z,100291.00
2022-11-24T01:54:24.538Z,100288.00
2022-11-24T01:57:00.325Z,100285.00
2022-11-24T01:59:27.607Z,100294.00
2022-11-24T02:01:56.547Z,100309.00
2022-11-24T02:04:31.028Z,100311.00
2022-11-24T02:07:02.521Z,100319.00
2022-11-24T02:09:45.066Z,100330.00
2022-11-24T02:12:11.946Z,100326.00
2022-11-24T02:14:41.788Z,100325.00
2022-11-24T02:17:09.768Z,100336.00
2022-11-24T02:19:54.762Z,100341.00
2022-11-24T02:23:04.218Z,100339.00
2022-11-24T02:25:48.240Z,100335.00
2022-11-24T02:28:20.906Z,100333.00
2022-11-24T02:30:48.446Z,100332.00
2022-11-24T02:33:15.687Z,100324.00
2022-11-24T02:35:42.792Z,100334.00
2022-11-24T02:38:13.703Z,100340.00
2022-11-24T02:40:47.303Z,100342.00
2022-11-24T02:43:20.466Z,100342.00
2022-11-24T02:45:47.789Z,100349.00
2022-11-24T02:48:16.069Z,100347.00
2022-11-24T02:50:42.887Z,100351.00
2022-11-24T02:53:09.891Z,100346.00
2022-11-24T02:55:36.612Z,100346.00
2022-11-24T02:58:03.565Z,100353.00
2022-11-24T03:00:30.528Z,100354.00
2022-11-24T03:02:57.768Z,100348.00
2022-11-24T03:05:24.606Z,100344.00
2022-11-24T03:07:51.448Z,100348.00
2022-11-24T03:10:18.319Z,100332.00
2022-11-24T03:12:45.085Z,100321.00
2022-11-24T03:15:11.853Z,100325.00
2022-11-24T03:17:38.644Z,100324.00
2022-11-24T03:20:05.953Z,100320.00
2022-11-24T03:22:32.894Z,100316.00
2022-11-24T03:24:59.739Z,100352.00
2022-11-24T03:27:26.703Z,100347.00
2022-11-24T03:29:53.505Z,100345.00
2022-11-24T03:32:20.402Z,100344.00
2022-11-24T03:34:47.367Z,100347.00
2022-11-24T03:37:14.654Z,100349.00
2022-11-24T03:39:41.406Z,100358.00
2022-11-24T03:42:08.173Z,100367.00
2022-11-24T03:44:35.315Z,100372.00
2022-11-24T03:47:02.185Z,100369.00
2022-11-24T03:49:29.096Z,100369.00
2022-11-24T03:51:55.892Z,100378.00
2022-11-24T03:54:22.704Z,100371.00
2022-11-24T03:56:49.511Z,100368.00
2022-11-24T03:59:17.015Z,100368.00
2022-11-24T04:01:43.818Z,100369.00
2022-11-24T04:04:12.477Z,100369.00
2022-11-24T04:06:40.200Z,100383.00
2022-11-24T04:09:07.468Z,100382.00
2022-11-24T04:11:52.748Z,100388.00
2022-11-24T04:14:19.483Z,100389.00
2022-11-24T04:16:46.533Z,100385.00
2022-11-24T04:19:13.360Z,100390.00
2022-11-24T04:21:40.127Z,100385.00
2022-11-24T04:24:07.141Z,100391.00
2022-11-24T04:26:34.054Z,100376.00
2022-11-24T04:29:00.791Z,100376.00
2022-11-24T04:31:27.587Z,100385.00
2022-11-24T04:33:54.395Z,100388.00
2022-11-24T04:36:21.161Z,100385.00
2022-11-24T04:39:24.197Z,100388.00
2022-11-24T04:41:34.675Z,100386.00
2022-11-24T04:44:01.410Z,100384.00
2022-11-24T04:46:28.226Z,100392.00
2022-11-24T04:48:55.369Z,100384.00
2022-11-24T04:51:22.119Z,100392.00
2022-11-24T04:53:49.413Z,100414.00
2022-11-24T04:56:16.206Z,100426.00
2022-11-24T04:58:42.990Z,100421.00
2022-11-24T05:01:09.923Z,100429.00
2022-11-24T05:03:37.204Z,100439.00
2022-11-24T05:06:04.376Z,100432.00
2022-11-24T05:08:31.405Z,100430.00
2022-11-24T05:11:03.948Z,100440.00
2022-11-24T05:13:31.257Z,100441.00
2022-11-24T05:15:58.059Z,100454.00
2022-11-24T05:18:24.870Z,100450.00
2022-11-24T05:20:51.595Z,100436.00
2022-11-24T05:23:18.516Z,100447.00
2022-11-24T05:25:47.756Z,100448.00
2022-11-24T05:28:15.046Z,100442.00
2022-11-24T05:30:41.987Z,100444.00
2022-11-24T05:33:18.923Z,100449.00
2022-11-24T05:35:46.605Z,100455.00
2022-11-24T05:38:13.371Z,100454.00
2022-11-24T05:40:40.420Z,100452.00
2022-11-24T05:43:16.006Z,100464.00
2022-11-24T05:45:44.224Z,100469.00
2022-11-24T05:48:14.778Z,100462.00
2022-11-24T05:50:42.136Z,100474.00
2022-11-24T05:53:14.014Z,100458.00
2022-11-24T05:55:41.996Z,100474.00
2022-11-24T05:58:10.329Z,100476.00
2022-11-24T06:00:37.452Z,100473.00
2022-11-24T06:03:04.581Z,100474.00
2022-11-24T06:05:31.446Z,100479.00
2022-11-24T06:08:00.626Z,100478.00
2022-11-24T06:10:28.325Z,100479.00
2022-11-24T06:12:55.395Z,100476.00
2022-11-24T06:15:22.296Z,100492.00
2022-11-24T06:17:55.962Z,100496.00
2022-11-24T06:20:29.766Z,100490.00
2022-11-24T06:22:59.034Z,100504.00
2022-11-24T06:25:26.321Z,100508.00
2022-11-24T06:27:53.027Z,100511.00
2022-11-24T06:30:19.864Z,100506.00
2022-11-24T06:32:49.706Z,100516.00
2022-11-24T06:35:17.288Z,100514.00
2022-11-24T06:37:45.390Z,100521.00
2022-11-24T06:40:12.468Z,100529.00
2022-11-24T06:42:39.390Z,100518.00
2022-11-24T06:45:09.381Z,100526.00
2022-11-24T06:47:37.223Z,100527.00
2022-11-24T06:50:04.525Z,100522.00
2022-11-24T06:52:31.270Z,100530.00
2022-11-24T06:54:58.032Z,100524.00
2022-11-24T06:57:24.810Z,100525.00
2022-11-24T06:59:52.106Z,100522.00
2022-11-24T07:02:18.927Z,100522.00
2022-11-24T07:04:45.668Z,100526.00
2022-11-24T07:07:12.728Z,100521.00
2022-11-24T07:09:39.549Z,100540.00
2022-11-24T07:12:06.712Z,100529.00
2022-11-24T07:14:33.758Z,100543.00
2022-11-24T07:17:02.542Z,100533.00
2022-11-24T07:19:29.378Z,100535.00
2022-11-24T07:21:56.781Z,100543.00
2022-11-24T07:24:23.586Z,100552.00
2022-11-24T07:26:50.346Z,100545.00
2022-11-24T07:29:17.093Z,100552.00
2022-11-24T07:31:45.673Z,100549.00
2022-11-24T07:34:14.861Z,100552.00
2022-11-24T07:36:42.926Z,100557.00
2022-11-24T07:39:09.800Z,100564.00
2022-11-24T07:41:36.606Z,100564.00
2022-11-24T07:44:03.505Z,100576.00
2022-11-24T07:46:30.242Z,100575.00
2022-11-24T07:48:57.014Z,100564.00
2022-11-24T07:51:24.170Z,100561.00
2022-11-24T07:53:51.202Z,100568.00
2022-11-24T07:56:17.977Z,100579.00
2022-11-24T07:58:49.683Z,100586.00
2022-11-24T08:01:20.206Z,100578.00
2022-11-24T08:03:47.397Z,100580.00
2022-11-24T08:06:24.976Z,100579.00
2022-11-24T08:08:53.331Z,100571.00
2022-11-24T08:11:20.202Z,100573.00
2022-11-24T08:13:46.987Z,100582.00
2022-11-24T08:16:17.740Z,100580.00
2022-11-24T08:18:51.208Z,100570.00
2022-11-24T08:21:18.049Z,100579.00
2022-11-24T08:23:44.948Z,100586.00
2022-11-24T08:26:17.635Z,100588.00
2022-11-24T08:28:46.446Z,100599.00
2022-11-24T08:31:18.579Z,100591.00
2022-11-24T08:33:46.204Z,100599.00
2022-11-24T08:36:18.995Z,100589.00
2022-11-24T08:38:46.831Z,100599.00
2022-11-24T08:41:17.309Z,100599.00
2022-11-24T08:43:44.244Z,100597.00
2022-11-24T08:46:16.880Z,100604.00
2022-11-24T08:48:51.098Z,100595.00
2022-11-24T08:51:20.466Z,100604.00
2022-11-24T08:53:47.249Z,100612.00
2022-11-24T08:56:14.969Z,100605.00
2022-11-24T08:58:42.134Z,100607.00
2022-11-24T09:01:13.955Z,100607.00
2022-11-24T09:03:48.510Z,100604.00
2022-11-24T09:06:23.418Z,100607.00
2022-11-24T09:08:54.584Z,100613.00
2022-11-24T09:11:23.385Z,100608.00
2022-11-24T09:13:50.404Z,100619.00
2022-11-24T09:16:27.283Z,100618.00
2022-11-24T09:19:04.603Z,100626.00
2022-11-24T09:21:34.396Z,100625.00
2022-11-24T09:24:01.399Z,100634.00
2022-11-24T09:26:32.165Z,100638.00
2022-11-24T09:29:01.175Z,100636.00
2022-11-24T09:31:36.275Z,100636.00
2022-11-24T09:34:07.259Z,100637.00
2022-11-24T09:36:35.010Z,100640.00
2022-11-24T09:39:01.749Z,100633.00
2022-11-24T09:42:09.706Z,100636.00
2022-11-24T09:45:07.524Z,100636.00
2022-11-24T09:48:15.704Z,100642.00
2022-11-24T09:50:48.241Z,100636.00
2022-11-24T09:53:41.161Z,100644.00
2022-11-24T09:56:26.021Z,100650.00
2022-11-24T09:59:02.722Z,100655.00
2022-11-24T10:01:30.685Z,100657.00
2022-11-24T10:04:04.246Z,100656.00
2022-11-24T10:06:50.062Z,100655.00
2022-11-24T10:09:35.503Z,100668.00
2022-11-24T10:12:37.046Z,100661.00
2022-11-24T10:15:25.347Z,100659.00
2022-11-24T10:18:26.854Z,100652.00
2022-11-24T10:21:09.694Z,100654.00
2022-11-24T10:24:16.404Z,100647.00
2022-11-24T10:26:58.482Z,100654.00
2022-11-24T10:29:37.553Z,100659.00
2022-11-24T10:32:23.200Z,100654.00
2022-11-24T10:34:52.923Z,100667.00
2022-11-24T10:37:49.100Z,100663.00
2022-11-24T10:40:59.110Z,100670.00
2022-11-24T10:43:28.410Z,100661.00
2022-11-24T10:46:22.980Z,100662.00
2022-11-24T10:48:53.509Z,100665.00
2022-11-24T10:52:13.069Z,100661.00
2022-11-24T10:55:01.360Z,100658.00
2022-11-24T10:57:33.821Z,100652.00
2022-11-24T11:00:02.465Z,100656.00
2022-11-24T11:02:39.315Z,100658.00
2022-11-24T11:05:42.400Z,100662.00
2022-11-24T11:08:22.551Z,100662.00
2022-11-24T11:11:29.420Z,100678.00
2022-11-24T11:14:04.249Z,100678.00
2022-11-24T11:16:41.740Z,100685.00
2022-11-24T11:19:50.643Z,100678.00
2022-11-24T11:22:33.058Z,100678.00
2022-11-24T11:25:10.064Z,100669.00
2022-11-24T11:27:39.020Z,100671.00
2022-11-24T11:36:15.684Z,100658.00
2022-11-24T11:38:44.979Z,100670.00
2022-11-24T11:41:26.026Z,100663.00
2022-11-24T11:44:08.778Z,100669.00
2022-11-24T11:46:35.698Z,100667.00
2022-11-24T11:49:03.250Z,100668.00
2022-11-24T11:52:20.407Z,100673.00
2022-11-24T11:55:09.811Z,100678.00
2022-11-24T11:58:32.656Z,100663.00
2022-11-24T12:01:38.719Z,100675.00
2022-11-24T12:04:38.431Z,100671.00
2022-11-24T12:07:48.645Z,100666.00
2022-11-24T12:10:50.356Z,100676.00
2022-11-24T12:13:48.509Z,100674.00
2022-11-24T12:16:27.849Z,100667.00
2022-11-24T12:19:53.924Z,100660.00
2022-11-24T12:23:02.354Z,100656.00
2022-11-24T12:25:40.861Z,100658.00
2022-11-24T12:28:43.715Z,100677.00
2022-11-24T12:31:44.963Z,100664.00
2022-11-24T12:34:52.573Z,100669.00
2022-11-24T12:37:48.300Z,100668.00
2022-11-24T12:40:35.658Z,100662.00
2022-11-24T12:43:40.248Z,100672.00
2022-11-24T12:46:55.908Z,100680.00
2022-11-24T12:49:37.806Z,100678.00
2022-11-24T12:52:27.037Z,100681.00
2022-11-24T12:54:55.877Z,100679.00
2022-11-24T12:57:43.814Z,100679.00
2022-11-24T13:00:22.316Z,100691.00
2022-11-24T13:03:21.154Z,100684.00
2022-11-24T13:06:08.964Z,100702.00
2022-11-24T13:08:37.216Z,100699.00
2022-11-24T13:11:22.396Z,100704.00
2022-11-24T13:14:04.785Z,100699.00
2022-11-24T13:16:37.117Z,100700.00
2022-11-24T13:19:15.031Z,100697.00
2022-11-24T13:21:42.873Z,100692.00
2022-11-24T13:24:19.697Z,100697.00
2022-11-24T13:27:15.410Z,100694.00
2022-11-24T13:29:45.494Z,100705.00
2022-11-24T13:32:12.186Z,100720.00
2022-11-24T13:34:38.844Z,100713.00
2022-11-24T13:37:34.195Z,100719.00
2022-11-24T13:40:31.490Z,100726.00
2022-11-24T13:42:58.794Z,100722.00
2022-11-24T13:45:41.491Z,100724.00
2022-11-24T13:48:21.012Z,100720.00
2022-11-24T13:50:51.661Z,100722.00
2022-11-24T13:53:43.942Z,100729.00
2022-11-24T13:56:14.140Z,100730.00
2022-11-24T13:58:45.962Z,100742.00
2022-11-24T14:01:24.680Z,100738.00
2022-11-24T14:04:36.253Z,100749.00
2022-11-24T14:07:11.535Z,100757.00
2022-11-24T14:09:50.040Z,100761.00
2022-11-24T14:12:31.333Z,100761.00
2022-11-24T14:15:27.187Z,100773.00
2022-11-24T14:17:53.995Z,100766.00
2022-11-24T14:20:28.274Z,100777.00
2022-11-24T14:22:55.106Z,100772.00
2022-11-24T14:25:32.366Z,100785.00
2022-11-24T14:28:00.427Z,100784.00
2022-11-24T14:30:27.473Z,100781.00
2022-11-24T14:33:03.588Z,100784.00
2022-11-24T14:35:34.173Z,100795.00
2022-11-24T14:38:06.123Z,100796.00
2022-11-24T14:40:55.309Z,100795.00
2022-11-24T14:43:34.516Z,100794.00
2022-11-24T14:46:12.271Z,100791.00
2022-11-24T14:48:48.712Z,100798.00
2022-11-24T14:51:21.928Z,100799.00
2022-11-24T14:53:56.369Z,100802.00
2022-11-24T14:56:33.996Z,100802.00
2022-11-24T14:59:01.197Z,100803.00
2022-11-24T15:01:28.233Z,100808.00
2022-11-24T15:04:38.912Z,100810.00
2022-11-24T15:07:25.525Z,100805.00
2022-11-24T15:09:58.020Z,100807.00
2022-11-24T15:12:28.774Z,100813.00
2022-11-24T15:15:01.967Z,100828.00
2022-11-24T15:17:30.552Z,100827.00
2022-11-24T15:20:08.307Z,100826.00
2022-11-24T15:22:42.254Z,100825.00
2022-11-24T15:25:27.392Z,100836.00
2022-11-24T15:27:54.254Z,100835.00
2022-11-24T15:30:20.990Z,100833.00
2022-11-24T15:32:56.247Z,100835.00
2022-11-24T15:35:26.979Z,100834.00
2022-11-24T15:37:53.830Z,100859.00
2022-11-24T15:40:20.820Z,100860.00
2022-11-24T15:42:57.895Z,100853.00
2022-11-24T15:45:26.587Z,100850.00
2022-11-24T15:47:53.429Z,100847.00
2022-11-24T15:50:21.700Z,100854.00
2022-11-24T15:52:49.520Z,100857.00
2022-11-24T15:55:20.915Z,100862.00
2022-11-24T15:57:48.912Z,100859.00
2022-11-24T16:00:19.085Z,100867.00
2022-11-24T16:02:46.013Z,100862.00
2022-11-24T16:05:14.011Z,100858.00
2022-11-24T16:07:40.992Z,100873.00
2022-11-24T16:10:23.683Z,100865.00
2022-11-24T16:12:50.433Z,100862.00
2022-11-24T16:15:17.199Z,100873.00
2022-11-24T16:17:43.945Z,100875.00
2022-11-24T16:20:11.163Z,100878.00
2022-11-24T16:22:37.919Z,100880.00
2022-11-24T16:25:06.014Z,100869.00
2022-11-24T16:27:32.919Z,100874.00
2022-11-24T16:29:59.672Z,100888.00
2022-11-24T16:32:26.471Z,100881.00
2022-11-24T16:34:53.657Z,100885.00
2022-11-24T16:37:23.260Z,100888.00
2022-11-24T16:39:50.517Z,100883.00
2022-11-24T16:42:17.545Z,100883.00
2022-11-24T16:44:44.368Z,100883.00
2022-11-24T16:47:12.965Z,100883.00
2022-11-24T16:49:39.745Z,100886.00
2022-11-24T16:52:06.748Z,100882.00
2022-11-24T16:54:33.710Z,100880.00
2022-11-24T16:57:00.761Z,100889.00
2022-11-24T16:59:27.525Z,100889.00
2022-11-24T17:01:54.587Z,100892.00
2022-11-24T17:04:21.462Z,100895.00
2022-11-24T17:06:48.601Z,100887.00
2022-11-24T17:09:15.368Z,100891.00
2022-11-24T17:11:42.176Z,100896.00
2022-11-24T17:14:10.473Z,100895.00
2022-11-24T17:16:38.745Z,100892.00
2022-11-24T17:19:05.895Z,100892.00
2022-11-24T17:21:33.097Z,100907.00
2022-11-24T17:24:05.479Z,100903.00
2022-11-24T17:26:33.343Z,100912.00
2022-11-24T17:29:00.108Z,100902.00
2022-11-24T17:31:38.149Z,100917.00
2022-11-24T17:34:06.445Z,100915.00
2022-11-24T17:36:34.846Z,100917.00
2022-11-24T17:39:09.559Z,100916.00
2022-11-24T17:41:36.936Z,100920.00
2022-11-24T17:44:04.525Z,100920.00
2022-11-24T17:46:31.347Z,100910.00
2022-11-24T17:48:58.616Z,100908.00
2022-11-24T17:51:27.172Z,100911.00
2022-11-24T17:53:56.111Z,100918.00
2022-11-24T17:56:27.182Z,100917.00
2022-11-24T17:58:59.915Z,100912.00
2022-11-24T18:01:30.077Z,100911.00
2022-11-24T18:03:57.335Z,100911.00
2022-11-24T18:06:25.433Z,100919.00
2022-11-24T18:08:54.066Z,100923.00
2022-11-24T18:11:31.487Z,100914.00
2022-11-24T18:14:03.794Z,100911.00
2022-11-24T18:16:34.071Z,100921.00
2022-11-24T18:19:08.742Z,100916.00
2022-11-24T18:21:38.325Z,100924.00
2022-11-24T18:24:05.286Z,100923.00
2022-11-24T18:26:32.062Z,100925.00
2022-11-24T18:28:58.823Z,100934.00
2022-11-24T18:31:26.340Z,100946.00
2022-11-24T18:33:53.352Z,100948.00
2022-11-24T18:36:29.869Z,100947.00
2022-11-24T18:39:00.708Z,100940.00
2022-11-24T18:41:27.684Z,100947.00
2022-11-24T18:43:54.428Z,100936.00
2022-11-24T18:46:21.610Z,100941.00
2022-11-24T18:48:48.516Z,100944.00
2022-11-24T18:51:15.315Z,100958.00
2022-11-24T18:53:44.572Z,100942.00
2022-11-24T18:56:16.061Z,100935.00
2022-11-24T18:58:44.159Z,100950.00
2022-11-24T19:01:16.674Z,100953.00
2022-11-24T19:03:49.851Z,100948.00
2022-11-24T19:06:24.393Z,100944.00
2022-11-24T19:08:54.695Z,100937.00
2022-11-24T19:11:25.783Z,100936.00
2022-11-24T19:13:52.778Z,100949.00
2022-11-24T19:16:21.086Z,100948.00
2022-11-24T19:18:53.569Z,100943.00
2022-11-24T19:21:22.096Z,100945.00
2022-11-24T19:23:49.897Z,100956.00
2022-11-24T19:26:16.730Z,100949.00
2022-11-24T19:28:44.266Z,100952.00
2022-11-24T19:31:14.330Z,100961.00
2022-11-24T19:33:41.931Z,100956.00
2022-11-24T19:36:14.605Z,100947.00
2022-11-24T19:38:43.236Z,100947.00
2022-11-24T19:41:13.874Z,100948.00
2022-11-24T19:43:41.558Z,100952.00
2022-11-24T19:46:11.789Z,100958.00
2022-11-24T19:48:43.166Z,100966.00
2022-11-24T19:51:21.702Z,100967.00
2022-11-24T19:53:48.857Z,100969.00
2022-11-24T19:56:22.091Z,100983.00
2022-11-24T19:58:50.579Z,100978.00
2022-11-24T20:01:30.621Z,100981.00
2022-11-24T20:04:08.321Z,100980.00
2022-11-24T20:06:39.198Z,100979.00
2022-11-24T20:09:10.159Z,100985.00
2022-11-24T20:11:38.359Z,100981.00
2022-11-24T20:14:06.933Z,100994.00
2022-11-24T20:16:35.403Z,100996.00
2022-11-24T20:19:07.170Z,101007.00
2022-11-24T20:21:36.760Z,101012.00
2022-11-24T20:24:11.085Z,101003.00
2022-11-24T20:26:42.989Z,101013.00
2022-11-24T20:29:13.388Z,101015.00
2022-11-24T20:31:45.560Z,101018.00
2022-11-24T20:34:12.691Z,101022.00
2022-11-24T20:36:43.919Z,101018.00
2022-11-24T20:39:16.922Z,101018.00
2022-11-24T20:41:44.124Z,101015.00
2022-11-24T20:44:16.225Z,101025.00
2022-11-24T20:46:46.277Z,101021.00
2022-11-24T20:49:18.302Z,101020.00
2022-11-24T20:51:47.745Z,101020.00
2022-11-24T20:54:17.760Z,101014.00
2022-11-24T20:56:46.563Z,101026.00
2022-11-24T20:59:18.013Z,101020.00
2022-11-24T21:01:46.703Z,101021.00
2022-11-24T21:04:19.049Z,101017.00
2022-11-24T21:06:46.250Z,101017.00
2022-11-24T21:09:13.021Z,101020.00
2022-11-24T21:11:40.657Z,101020.00
2022-11-24T21:14:08.645Z,101027.00
2022-11-24T21:16:38.585Z,101019.00
2022-11-24T21:19:09.979Z,101016.00
2022-11-24T21:21:38.221Z,101023.00
2022-11-24T21:24:11.600Z,101023.00
2022-11-24T21:26:40.103Z,101022.00
2022-11-24T21:29:07.868Z,101027.00
2022-11-24T21:31:37.371Z,101025.00
2022-11-24T21:34:05.965Z,101033.00
2022-11-24T21:36:35.002Z,101032.00
2022-11-24T21:39:03.501Z,101030.00
2022-11-24T21:41:33.410Z,101031.00
2022-11-24T21:44:00.523Z,101043.00
2022-11-24T21:46:39.082Z,101040.00
2022-11-24T21:49:09.300Z,101038.00
2022-11-24T21:51:36.100Z,101033.00
2022-11-24T21:54:02.952Z,101038.00
2022-11-24T21:56:29.930Z,101041.00
2022-11-24T21:58:57.990Z,101049.00
2022-11-24T22:01:28.118Z,101045.00
2022-11-24T22:03:55.848Z,101051.00
2022-11-24T22:06:22.734Z,101049.00
2022-11-24T22:08:50.658Z,101052.00
2022-11-24T22:11:21.743Z,101065.00
2022-11-24T22:13:49.552Z,101056.00
2022-11-24T22:16:20.726Z,101053.00
2022-11-24T22:18:48.589Z,101066.00
2022-11-24T22:21:19.819Z,101062.00
2022-11-24T22:23:50.960Z,101061.00
2022-11-24T22:26:21.765Z,101068.00
2022-11-24T22:28:48.767Z,101061.00
2022-11-24T22:31:19.373Z,101065.00
2022-11-24T22:33:46.841Z,101069.00
2022-11-24T22:36:15.945Z,101070.00
2022-11-24T22:38:43.678Z,101066.00
2022-11-24T22:41:14.179Z,101062.00
2022-11-24T22:43:43.535Z,101070.00
2022-11-24T22:46:19.815Z,101073.00
2022-11-24T22:48:49.190Z,101068.00
2022-11-24T22:51:22.231Z,101070.00
2022-11-24T22:53:52.271Z,101075.00
2022-11-24T22:56:20.108Z,101081.00
2022-11-24T22:58:47.807Z,101068.00
2022-11-24T23:01:21.009Z,101076.00
2022-11-24T23:03:49.046Z,101087.00
2022-11-24T23:06:20.611Z,101081.00
2022-11-24T23:08:48.453Z,101077.00
2022-11-24T23:11:31.583Z,101071.00
2022-11-24T23:14:02.337Z,101070.00
2022-11-24T23:16:29.444Z,101068.00
2022-11-24T23:18:56.885Z,101080.00
2022-11-24T23:21:27.350Z,101079.00
2022-11-24T23:23:54.969Z,101083.00
2022-11-24T23:26:26.466Z,101075.00
2022-11-24T23:28:53.588Z,101077.00
2022-11-24T23:31:27.402Z,101079.00
2022-11-24T23:33:58.646Z,101073.00
2022-11-24T23:36:26.553Z,101075.00
2022-11-24T23:38:54.393Z,101078.00
2022-11-24T23:41:25.650Z,101074.00
2022-11-24T23:43:52.822Z,101083.00
2022-11-24T23:46:25.564Z,101084.00
2022-11-24T23:48:54.841Z,101086.00
2022-11-24T23:51:25.762Z,101103.00
2022-11-24T23:53:54.271Z,101087.00
2022-11-24T23:56:27.347Z,101080.00
2022-11-24T23:58:54.310Z,101082.00
